createdAt,value
2018-06-27T00:02:01.052Z,16.80
2018-06-27T00:04:28.628Z,16.70
2018-06-27T00:06:56.244Z,16.60
2018-06-27T00:09:24.593Z,16.60
2018-06-27T00:11:52.176Z,16.50
2018-06-27T00:14:19.829Z,16.50
2018-06-27T00:16:47.417Z,16.60
2018-06-27T00:19:15.021Z,16.60
2018-06-27T00:21:42.609Z,16.60
2018-06-27T00:24:10.184Z,16.60
2018-06-27T00:26:37.765Z,16.50
2018-06-27T00:29:06.144Z,16.50
2018-06-27T00:31:33.724Z,16.50
2018-06-27T00:34:01.298Z,16.50
2018-06-27T00:36:29.297Z,16.40
2018-06-27T00:38:56.872Z,16.30
2018-06-27T00:41:24.444Z,16.20
2018-06-27T00:43:52.052Z,16.10
2018-06-27T00:46:19.625Z,16.10
2018-06-27T00:48:47.196Z,16.00
2018-06-27T00:51:14.789Z,16.00
2018-06-27T00:53:44.981Z,16.00
2018-06-27T00:56:12.545Z,15.90
2018-06-27T00:58:40.161Z,15.90
2018-06-27T01:01:08.486Z,15.90
2018-06-27T01:03:36.049Z,15.80
2018-06-27T01:06:03.659Z,15.90
2018-06-27T01:08:31.221Z,16.10
2018-06-27T01:10:59.556Z,16.10
2018-06-27T01:13:27.150Z,16.10
2018-06-27T01:15:55.480Z,16.00
2018-06-27T01:18:23.041Z,16.00
2018-06-27T01:20:51.123Z,15.90
2018-06-27T01:23:18.688Z,15.80
2018-06-27T01:25:46.254Z,15.80
2018-06-27T01:28:13.848Z,15.70
2018-06-27T01:30:42.184Z,15.60
2018-06-27T01:33:09.741Z,15.60
2018-06-27T01:35:37.335Z,15.60
2018-06-27T01:38:04.897Z,15.60
2018-06-27T01:40:32.460Z,15.60
2018-06-27T01:43:00.524Z,15.50
2018-06-27T01:45:28.087Z,15.50
2018-06-27T01:47:55.648Z,15.40
2018-06-27T01:50:23.243Z,15.40
2018-06-27T01:52:50.800Z,15.30
2018-06-27T01:55:18.361Z,15.30
2018-06-27T01:57:46.720Z,15.20
2018-06-27T02:00:14.279Z,15.20
2018-06-27T02:02:41.838Z,15.20
2018-06-27T02:05:09.447Z,15.10
2018-06-27T02:07:37.013Z,15.10
2018-06-27T02:10:04.569Z,15.00
2018-06-27T02:12:32.161Z,15.00
2018-06-27T02:14:59.724Z,14.90
2018-06-27T02:17:27.282Z,14.90
2018-06-27T02:19:54.872Z,14.90
2018-06-27T02:22:22.434Z,14.90
2018-06-27T02:24:50.002Z,14.80
2018-06-27T02:27:18.389Z,14.80
2018-06-27T02:29:46.711Z,14.80
2018-06-27T02:32:14.278Z,14.80
2018-06-27T02:34:41.874Z,14.70
2018-06-27T02:37:09.441Z,14.70
2018-06-27T02:39:37.774Z,14.60
2018-06-27T02:42:05.370Z,14.60
2018-06-27T02:44:32.922Z,14.50
2018-06-27T02:47:00.483Z,14.40
2018-06-27T02:49:28.105Z,14.40
2018-06-27T02:51:55.658Z,14.30
2018-06-27T02:54:23.223Z,14.30
2018-06-27T02:56:50.820Z,14.20
2018-06-27T02:59:18.380Z,14.20
2018-06-27T03:01:45.943Z,14.20
2018-06-27T03:04:13.529Z,14.30
2018-06-27T03:06:41.097Z,14.50
2018-06-27T03:09:09.420Z,14.40
2018-06-27T03:11:37.033Z,14.40
2018-06-27T03:14:05.369Z,14.30
2018-06-27T03:16:32.937Z,14.30
2018-06-27T03:19:00.524Z,14.20
2018-06-27T03:21:28.088Z,14.20
2018-06-27T03:23:55.652Z,14.10
2018-06-27T03:26:23.249Z,14.10
2018-06-27T03:28:50.804Z,14.00
2018-06-27T03:31:18.360Z,14.00
2018-06-27T03:33:46.040Z,13.90
2018-06-27T03:36:13.538Z,13.90
2018-06-27T03:38:41.098Z,13.80
2018-06-27T03:41:08.697Z,13.90
2018-06-27T03:43:37.031Z,14.00
2018-06-27T03:46:04.592Z,14.00
2018-06-27T03:48:32.197Z,13.90
2018-06-27T03:50:59.755Z,13.90
2018-06-27T03:53:28.088Z,13.90
2018-06-27T03:55:55.701Z,13.90
2018-06-27T03:58:23.263Z,13.90
2018-06-27T04:00:51.595Z,13.80
2018-06-27T04:03:19.184Z,13.80
2018-06-27T04:05:46.745Z,13.80
2018-06-27T04:08:14.309Z,13.80
2018-06-27T04:10:41.937Z,13.90
2018-06-27T04:13:09.574Z,14.10
2018-06-27T04:15:37.060Z,14.10
2018-06-27T04:18:04.680Z,14.00
2018-06-27T04:20:32.237Z,14.00
2018-06-27T04:23:00.567Z,13.90
2018-06-27T04:25:28.159Z,13.90
2018-06-27T04:27:55.717Z,13.90
2018-06-27T04:30:23.282Z,13.80
2018-06-27T04:32:50.877Z,13.80
2018-06-27T04:35:18.437Z,13.80
2018-06-27T04:37:46.006Z,13.90
2018-06-27T04:40:13.612Z,13.90
2018-06-27T04:42:41.169Z,13.90
2018-06-27T04:45:08.734Z,14.00
2018-06-27T04:47:36.326Z,14.20
2018-06-27T04:50:03.896Z,14.20
2018-06-27T04:52:31.460Z,14.30
2018-06-27T04:54:59.200Z,14.30
2018-06-27T04:57:26.627Z,14.30
2018-06-27T04:59:54.187Z,14.40
2018-06-27T05:02:21.790Z,14.50
2018-06-27T05:04:50.124Z,14.90
2018-06-27T05:07:17.682Z,14.90
2018-06-27T05:09:45.278Z,14.90
2018-06-27T05:12:12.836Z,15.00
2018-06-27T05:14:40.398Z,14.90
2018-06-27T05:17:07.998Z,14.90
2018-06-27T05:19:35.556Z,14.90
2018-06-27T05:22:03.110Z,14.90
2018-06-27T05:24:30.727Z,15.00
2018-06-27T05:26:58.284Z,15.00
2018-06-27T05:29:25.842Z,15.00
2018-06-27T05:31:53.435Z,15.30
2018-06-27T05:34:20.994Z,15.40
2018-06-27T05:36:49.344Z,15.60
2018-06-27T05:39:16.955Z,15.60
2018-06-27T05:41:45.286Z,15.90
2018-06-27T05:44:12.866Z,15.90
2018-06-27T05:46:40.486Z,15.90
2018-06-27T05:49:08.056Z,16.10
2018-06-27T05:51:35.633Z,16.10
2018-06-27T05:54:03.210Z,16.10
2018-06-27T05:56:30.771Z,16.10
2018-06-27T05:58:58.349Z,16.10
2018-06-27T06:01:25.945Z,16.20
2018-06-27T06:03:53.502Z,16.30
2018-06-27T06:06:21.071Z,16.40
2018-06-27T06:08:48.691Z,16.50
2018-06-27T06:11:17.087Z,16.60
2018-06-27T06:13:44.580Z,16.60
2018-06-27T06:16:12.165Z,16.70
2018-06-27T06:18:39.733Z,16.80
2018-06-27T06:21:07.299Z,16.90
2018-06-27T06:23:34.897Z,17.00
2018-06-27T06:26:02.462Z,17.10
2018-06-27T06:28:30.020Z,17.30
2018-06-27T06:30:58.088Z,17.40
2018-06-27T06:33:26.412Z,17.70
2018-06-27T06:35:53.968Z,17.70
2018-06-27T06:38:21.565Z,17.80
2018-06-27T06:40:49.223Z,17.80
2018-06-27T06:43:16.682Z,17.90
2018-06-27T06:45:44.284Z,18.00
2018-06-27T06:48:11.847Z,18.00
2018-06-27T06:50:39.443Z,18.10
2018-06-27T06:53:07.634Z,18.10
2018-06-27T06:55:35.176Z,18.20
2018-06-27T06:58:02.736Z,18.30
2018-06-27T07:00:30.336Z,18.30
2018-06-27T07:02:57.901Z,18.40
2018-06-27T07:05:26.229Z,18.60
2018-06-27T07:07:54.269Z,18.60
2018-06-27T07:10:21.832Z,18.70
2018-06-27T07:12:49.393Z,18.80
2018-06-27T07:15:17.769Z,19.00
2018-06-27T07:17:45.370Z,19.00
2018-06-27T07:20:13.644Z,19.20
2018-06-27T07:22:41.245Z,19.20
2018-06-27T07:25:08.810Z,19.30
2018-06-27T07:27:36.371Z,19.40
2018-06-27T07:30:04.360Z,19.50
2018-06-27T07:32:32.677Z,19.60
2018-06-27T07:35:01.212Z,19.60
2018-06-27T07:37:29.587Z,19.70
2018-06-27T07:39:57.143Z,19.70
2018-06-27T07:42:24.699Z,19.80
2018-06-27T07:44:52.339Z,19.90
2018-06-27T07:47:19.899Z,20.00
2018-06-27T07:49:47.461Z,20.20
2018-06-27T07:52:15.068Z,20.30
2018-06-27T07:54:43.389Z,20.40
2018-06-27T07:57:10.952Z,20.40
2018-06-27T07:59:39.017Z,20.50
2018-06-27T08:02:06.572Z,20.60
2018-06-27T08:04:34.130Z,20.60
2018-06-27T08:07:01.736Z,20.70
2018-06-27T08:09:29.298Z,20.80
2018-06-27T08:11:56.859Z,20.80
2018-06-27T08:14:24.498Z,21.10
2018-06-27T08:16:52.058Z,21.30
2018-06-27T08:19:19.609Z,21.50
2018-06-27T08:21:47.250Z,21.50
2018-06-27T08:24:14.807Z,21.60
2018-06-27T08:26:42.362Z,21.60
2018-06-27T08:29:10.759Z,21.70
2018-06-27T08:31:38.324Z,21.70
2018-06-27T08:34:05.882Z,21.80
2018-06-27T08:36:33.492Z,21.80
2018-06-27T08:39:01.048Z,21.90
2018-06-27T08:41:28.607Z,22.00
2018-06-27T08:43:56.228Z,22.20
2018-06-27T08:46:23.785Z,22.40
2018-06-27T08:48:51.346Z,22.60
2018-06-27T08:51:19.044Z,22.80
2018-06-27T08:53:46.690Z,23.10
2018-06-27T08:56:14.335Z,23.00
2018-06-27T08:58:41.989Z,23.10
2018-06-27T09:01:10.299Z,23.10
2018-06-27T09:03:37.855Z,23.10
2018-06-27T09:06:05.490Z,23.10
2018-06-27T09:08:33.056Z,23.20
2018-06-27T09:11:00.608Z,23.20
2018-06-27T09:13:28.973Z,23.30
2018-06-27T09:15:57.292Z,23.40
2018-06-27T09:18:24.850Z,23.40
2018-06-27T09:20:52.455Z,23.40
2018-06-27T09:23:20.013Z,23.50
2018-06-27T09:25:47.561Z,23.50
2018-06-27T09:28:15.200Z,23.70
2018-06-27T09:30:42.762Z,23.70
2018-06-27T09:33:11.100Z,23.70
2018-06-27T09:35:39.473Z,23.80
2018-06-27T09:38:07.035Z,23.70
2018-06-27T09:40:34.599Z,23.80
2018-06-27T09:43:02.209Z,23.90
2018-06-27T09:45:29.763Z,23.90
2018-06-27T09:47:57.319Z,24.10
2018-06-27T09:50:24.972Z,24.10
2018-06-27T09:52:52.481Z,24.20
2018-06-27T09:55:20.046Z,24.20
2018-06-27T09:57:47.654Z,24.20
2018-06-27T10:00:15.220Z,24.20
2018-06-27T10:02:42.779Z,24.30
2018-06-27T10:05:10.421Z,24.30
2018-06-27T10:07:38.762Z,24.30
2018-06-27T10:10:06.301Z,24.30
2018-06-27T10:12:35.011Z,24.40
2018-06-27T10:15:02.570Z,24.40
2018-06-27T10:17:30.131Z,24.50
2018-06-27T10:19:58.111Z,24.50
2018-06-27T10:22:25.711Z,24.60
2018-06-27T10:24:53.230Z,24.60
2018-06-27T10:27:20.879Z,24.70
2018-06-27T10:29:48.443Z,24.90
2018-06-27T10:32:16.006Z,24.90
2018-06-27T10:34:43.647Z,25.10
2018-06-27T10:37:11.211Z,25.10
2018-06-27T10:39:38.794Z,25.20
2018-06-27T10:42:07.081Z,25.20
2018-06-27T10:44:34.674Z,25.20
2018-06-27T10:47:02.198Z,25.20
2018-06-27T10:49:29.838Z,25.30
2018-06-27T10:51:57.397Z,25.30
2018-06-27T10:54:24.952Z,25.40
2018-06-27T10:56:52.558Z,25.40
2018-06-27T10:59:20.119Z,25.40
2018-06-27T11:01:47.678Z,25.50
2018-06-27T11:04:15.280Z,25.60
2018-06-27T11:06:42.840Z,25.60
2018-06-27T11:09:10.398Z,25.70
2018-06-27T11:11:40.071Z,25.60
2018-06-27T11:14:07.652Z,25.60
2018-06-27T11:16:35.194Z,25.60
2018-06-27T11:19:02.788Z,25.70
2018-06-27T11:21:31.112Z,26.00
2018-06-27T11:23:58.677Z,25.90
2018-06-27T11:26:26.275Z,25.90
2018-06-27T11:28:53.837Z,25.90
2018-06-27T11:31:22.165Z,25.80
2018-06-27T11:33:49.776Z,25.80
2018-06-27T11:36:17.330Z,25.80
2018-06-27T11:38:44.939Z,25.90
2018-06-27T11:41:13.656Z,26.00
2018-06-27T11:43:42.214Z,26.00
2018-06-27T11:46:08.769Z,26.10
2018-06-27T11:48:37.257Z,26.20
2018-06-27T11:51:04.813Z,26.20
2018-06-27T11:53:32.373Z,26.30
2018-06-27T11:55:59.971Z,26.30
2018-06-27T11:58:27.524Z,26.40
2018-06-27T12:00:55.082Z,26.50
2018-06-27T12:03:22.722Z,26.60
2018-06-27T12:05:50.293Z,26.90
2018-06-27T12:08:17.847Z,26.90
2018-06-27T12:10:45.454Z,27.00
2018-06-27T12:13:13.780Z,26.80
2018-06-27T12:15:41.339Z,26.80
2018-06-27T12:18:08.950Z,26.80
2018-06-27T12:20:37.333Z,26.80
2018-06-27T12:23:05.657Z,26.80
2018-06-27T12:25:33.271Z,26.80
2018-06-27T12:28:01.605Z,27.10
2018-06-27T12:30:29.166Z,27.00
2018-06-27T12:32:56.776Z,27.10
2018-06-27T12:35:25.102Z,27.00
2018-06-27T12:37:52.660Z,27.00
2018-06-27T12:40:20.278Z,27.00
2018-06-27T12:42:48.604Z,27.30
2018-06-27T12:45:16.171Z,27.30
2018-06-27T12:47:44.659Z,27.50
2018-06-27T12:50:12.250Z,27.60
2018-06-27T12:52:39.770Z,27.60
2018-06-27T12:55:07.416Z,27.60
2018-06-27T12:57:34.973Z,27.60
2018-06-27T13:00:02.534Z,27.60
2018-06-27T13:02:30.143Z,27.50
2018-06-27T13:04:57.702Z,27.50
2018-06-27T13:07:25.262Z,27.60
2018-06-27T13:09:53.321Z,27.80
2018-06-27T13:12:20.872Z,27.90
2018-06-27T13:14:48.434Z,28.10
2018-06-27T13:17:16.523Z,28.20
2018-06-27T13:19:44.850Z,28.30
2018-06-27T13:22:13.180Z,28.30
2018-06-27T13:24:41.452Z,28.30
2018-06-27T13:27:09.014Z,28.20
2018-06-27T13:29:36.572Z,28.00
2018-06-27T13:32:04.160Z,27.90
2018-06-27T13:34:31.721Z,27.80
2018-06-27T13:36:59.283Z,27.70
2018-06-27T13:39:26.898Z,27.90
2018-06-27T13:41:54.455Z,28.00
2018-06-27T13:44:22.014Z,28.10
2018-06-27T13:46:50.220Z,28.20
2018-06-27T13:49:17.777Z,28.20
2018-06-27T13:51:45.339Z,28.30
2018-06-27T13:54:13.412Z,28.30
2018-06-27T13:56:40.973Z,28.20
2018-06-27T13:59:08.533Z,28.20
2018-06-27T14:01:36.618Z,28.40
2018-06-27T14:04:04.179Z,28.50
2018-06-27T14:06:31.800Z,28.60
2018-06-27T14:08:59.370Z,28.70
2018-06-27T14:11:26.934Z,28.70
2018-06-27T14:13:54.493Z,28.70
2018-06-27T14:16:22.134Z,28.50
2018-06-27T14:18:50.489Z,28.40
2018-06-27T14:21:18.016Z,28.30
2018-06-27T14:23:46.199Z,28.20
2018-06-27T14:26:13.772Z,28.00
2018-06-27T14:28:41.333Z,28.00
2018-06-27T14:31:08.955Z,28.10
2018-06-27T14:33:36.514Z,28.20
2018-06-27T14:36:04.094Z,28.30
2018-06-27T14:38:31.702Z,28.50
2018-06-27T14:40:59.266Z,28.70
2018-06-27T14:43:27.595Z,29.10
2018-06-27T14:45:55.234Z,29.10
2018-06-27T14:48:22.794Z,29.20
2018-06-27T14:50:50.355Z,29.30
2018-06-27T14:53:18.769Z,29.40
2018-06-27T14:55:46.335Z,29.40
2018-06-27T14:58:13.893Z,29.50
2018-06-27T15:00:41.500Z,29.50
2018-06-27T15:03:09.060Z,29.60
2018-06-27T15:05:37.391Z,30.00
2018-06-27T15:08:06.106Z,29.90
2018-06-27T15:10:33.674Z,30.00
2018-06-27T15:13:01.238Z,29.90
2018-06-27T15:15:29.620Z,29.70
2018-06-27T15:17:57.944Z,29.80
2018-06-27T15:20:25.501Z,29.80
2018-06-27T15:22:53.125Z,29.90
2018-06-27T15:25:21.462Z,30.20
2018-06-27T15:27:49.039Z,30.20
2018-06-27T15:30:16.663Z,30.50
2018-06-27T15:32:44.224Z,30.70
2018-06-27T15:35:11.791Z,31.00
2018-06-27T15:37:39.778Z,31.20
2018-06-27T15:40:07.350Z,31.40
2018-06-27T15:42:34.908Z,31.50
2018-06-27T15:45:02.564Z,31.50
2018-06-27T15:47:30.127Z,31.70
2018-06-27T15:49:57.763Z,31.80
2018-06-27T15:52:25.309Z,31.80
2018-06-27T15:54:52.898Z,31.70
2018-06-27T15:57:20.460Z,31.70
2018-06-27T15:59:49.257Z,31.50
2018-06-27T16:02:16.838Z,31.40
2018-06-27T16:04:44.398Z,31.30
2018-06-27T16:07:12.127Z,31.20
2018-06-27T16:09:40.440Z,31.30
2018-06-27T16:12:08.944Z,31.30
2018-06-27T16:14:36.580Z,31.50
2018-06-27T16:17:04.223Z,31.80
2018-06-27T16:19:32.544Z,32.30
2018-06-27T16:22:00.585Z,32.20
2018-06-27T16:24:28.145Z,32.20
2018-06-27T16:26:55.835Z,32.10
2018-06-27T16:29:24.359Z,32.00
2018-06-27T16:31:54.706Z,31.60
2018-06-27T16:34:20.234Z,31.60
2018-06-27T16:36:48.755Z,31.60
2018-06-27T16:39:16.406Z,31.60
2018-06-27T16:41:43.904Z,31.80
2018-06-27T16:44:11.558Z,31.80
2018-06-27T16:46:39.120Z,31.90
2018-06-27T16:49:06.711Z,31.90
2018-06-27T16:51:34.480Z,31.90
2018-06-27T16:54:01.929Z,31.80
2018-06-27T16:56:29.422Z,31.70
2018-06-27T16:58:57.019Z,31.60
2018-06-27T17:01:25.460Z,31.20
2018-06-27T17:03:52.909Z,31.10
2018-06-27T17:06:20.559Z,30.80
2018-06-27T17:08:48.842Z,30.20
2018-06-27T17:11:16.401Z,30.20
2018-06-27T17:13:44.013Z,29.90
2018-06-27T17:16:11.573Z,29.80
2018-06-27T17:18:39.898Z,29.60
2018-06-27T17:21:07.537Z,29.60
2018-06-27T17:23:35.094Z,29.60
2018-06-27T17:26:03.414Z,29.60
2018-06-27T17:28:31.004Z,29.60
2018-06-27T17:30:58.572Z,29.60
2018-06-27T17:33:26.130Z,29.70
2018-06-27T17:35:53.768Z,29.80
2018-06-27T17:38:21.327Z,29.80
2018-06-27T17:40:48.888Z,29.80
2018-06-27T17:43:17.064Z,29.70
2018-06-27T17:45:44.667Z,29.60
2018-06-27T17:48:12.183Z,29.50
2018-06-27T17:50:40.948Z,29.30
2018-06-27T17:53:08.511Z,29.10
2018-06-27T17:55:36.065Z,28.80
2018-06-27T17:58:04.520Z,28.60
2018-06-27T18:00:32.845Z,28.00
2018-06-27T18:03:00.412Z,28.00
2018-06-27T18:05:28.018Z,27.70
2018-06-27T18:07:56.350Z,27.30
2018-06-27T18:10:23.905Z,27.30
2018-06-27T18:12:51.515Z,27.10
2018-06-27T18:15:19.071Z,27.00
2018-06-27T18:17:46.632Z,26.80
2018-06-27T18:20:15.379Z,26.70
2018-06-27T18:22:42.943Z,26.60
2018-06-27T18:25:10.508Z,26.50
2018-06-27T18:27:38.138Z,26.40
2018-06-27T18:30:05.699Z,26.30
2018-06-27T18:32:33.262Z,26.20
2018-06-27T18:35:00.876Z,26.10
2018-06-27T18:37:28.440Z,26.00
2018-06-27T18:39:55.994Z,25.90
2018-06-27T18:42:23.615Z,25.80
2018-06-27T18:44:51.172Z,25.70
2018-06-27T18:47:18.729Z,25.70
2018-06-27T18:49:46.344Z,25.60
2018-06-27T18:52:13.914Z,25.50
2018-06-27T18:54:41.471Z,25.40
2018-06-27T18:57:09.093Z,25.50
2018-06-27T18:59:36.652Z,25.60
2018-06-27T19:02:04.210Z,25.60
2018-06-27T19:04:31.817Z,25.50
2018-06-27T19:06:59.374Z,25.40
2018-06-27T19:09:26.935Z,25.20
2018-06-27T19:11:54.542Z,25.10
2018-06-27T19:14:22.102Z,25.00
2018-06-27T19:16:49.675Z,24.90
2018-06-27T19:19:17.291Z,24.80
2018-06-27T19:21:44.847Z,24.60
2018-06-27T19:24:12.403Z,24.50
2018-06-27T19:26:40.468Z,24.50
2018-06-27T19:29:08.032Z,24.60
2018-06-27T19:31:35.585Z,24.40
2018-06-27T19:34:03.197Z,24.30
2018-06-27T19:36:31.528Z,24.20
2018-06-27T19:38:59.090Z,24.20
2018-06-27T19:41:27.106Z,24.00
2018-06-27T19:43:54.621Z,23.80
2018-06-27T19:46:22.175Z,23.70
2018-06-27T19:48:49.786Z,23.50
2018-06-27T19:51:18.176Z,23.20
2018-06-27T19:53:45.690Z,23.20
2018-06-27T19:56:13.292Z,23.00
2018-06-27T19:58:41.619Z,22.80
2018-06-27T20:01:09.177Z,22.80
2018-06-27T20:03:36.777Z,22.70
2018-06-27T20:06:04.605Z,22.50
2018-06-27T20:08:32.173Z,22.40
2018-06-27T20:10:59.776Z,22.30
2018-06-27T20:13:28.112Z,22.10
2018-06-27T20:15:55.803Z,22.10
2018-06-27T20:18:23.280Z,22.00
2018-06-27T20:20:51.603Z,21.80
2018-06-27T20:23:19.171Z,21.80
2018-06-27T20:25:46.795Z,21.70
2018-06-27T20:28:14.356Z,21.60
2018-06-27T20:30:42.151Z,21.60
2018-06-27T20:33:09.761Z,21.50
2018-06-27T20:35:37.324Z,21.50
2018-06-27T20:38:04.890Z,21.50
2018-06-27T20:40:33.258Z,21.40
2018-06-27T20:43:00.817Z,21.40
2018-06-27T20:45:28.374Z,21.40
2018-06-27T20:47:55.984Z,21.40
2018-06-27T20:50:23.546Z,21.40
2018-06-27T20:52:51.106Z,21.50
2018-06-27T20:55:18.739Z,21.50
2018-06-27T20:57:46.298Z,21.50
2018-06-27T21:00:13.856Z,21.40
2018-06-27T21:02:42.232Z,21.30
2018-06-27T21:05:09.790Z,21.30
2018-06-27T21:07:37.626Z,21.20
2018-06-27T21:10:05.243Z,21.20
2018-06-27T21:12:32.802Z,21.10
2018-06-27T21:15:00.367Z,21.10
2018-06-27T21:17:28.721Z,21.00
2018-06-27T21:19:56.281Z,21.00
2018-06-27T21:22:23.855Z,21.00
2018-06-27T21:24:51.451Z,20.90
2018-06-27T21:27:19.012Z,20.90
2018-06-27T21:29:46.571Z,20.80
2018-06-27T21:32:14.172Z,20.80
2018-06-27T21:34:41.743Z,20.70
2018-06-27T21:37:09.320Z,20.70
2018-06-27T21:39:36.879Z,20.60
2018-06-27T21:42:04.442Z,20.60
2018-06-27T21:44:32.772Z,20.70
2018-06-27T21:47:00.414Z,20.70
2018-06-27T21:49:28.314Z,20.60
2018-06-27T21:51:55.878Z,20.60
2018-06-27T21:54:23.469Z,20.50
2018-06-27T21:56:51.031Z,20.50
2018-06-27T21:59:18.590Z,20.40
2018-06-27T22:01:46.187Z,20.40
2018-06-27T22:04:13.741Z,20.30
2018-06-27T22:06:41.302Z,20.30
2018-06-27T22:09:09.431Z,20.30
2018-06-27T22:11:36.930Z,20.20
2018-06-27T22:14:04.488Z,20.10
2018-06-27T22:16:32.854Z,20.00
2018-06-27T22:19:01.196Z,20.10
2018-06-27T22:21:28.756Z,20.00
2018-06-27T22:23:56.356Z,20.00
2018-06-27T22:26:24.693Z,19.80
2018-06-27T22:28:52.255Z,19.80
2018-06-27T22:31:19.901Z,19.70
2018-06-27T22:33:47.459Z,19.70
2018-06-27T22:36:15.019Z,19.50
2018-06-27T22:38:42.616Z,19.50
2018-06-27T22:41:10.179Z,19.40
2018-06-27T22:43:37.735Z,19.30
2018-06-27T22:46:05.324Z,19.30
2018-06-27T22:48:32.887Z,19.20
2018-06-27T22:51:01.209Z,19.10
2018-06-27T22:53:28.825Z,19.10
2018-06-27T22:55:56.386Z,19.00
2018-06-27T22:58:23.950Z,18.90
2018-06-27T23:00:52.316Z,18.80
2018-06-27T23:03:19.881Z,18.80
2018-06-27T23:05:47.443Z,18.80
2018-06-27T23:08:15.040Z,18.90
2018-06-27T23:10:42.606Z,18.80
2018-06-27T23:13:10.162Z,18.70
2018-06-27T23:15:37.763Z,18.70
2018-06-27T23:18:05.318Z,18.60
2018-06-27T23:20:32.879Z,18.50
2018-06-27T23:23:00.474Z,18.30
2018-06-27T23:25:28.034Z,18.30
2018-06-27T23:27:55.594Z,18.20
2018-06-27T23:30:23.193Z,18.20
2018-06-27T23:32:50.754Z,18.10
2018-06-27T23:35:18.314Z,18.10
2018-06-27T23:37:45.916Z,18.00
2018-06-27T23:40:13.484Z,17.90
2018-06-27T23:42:41.037Z,17.90
2018-06-27T23:45:08.630Z,17.90
2018-06-27T23:47:36.192Z,17.80
2018-06-27T23:50:03.757Z,17.70
2018-06-27T23:52:32.129Z,17.60
2018-06-27T23:54:59.696Z,17.60
2018-06-27T23:57:27.251Z,17.60
2018-06-27T23:59:54.866Z,17.50
